Data for 12/30/2017

Time Sea-Level Adjusted Pressure Absolute Pressure Temperature Relative Humidity Dew Point   
(mb) (inHg) (mb) (inHg) (C) (F) (%) (C) (F)
00:05 1018 30.06 847 25.01 -19.1 -2.5 73 -22.9 -9.2
00:10 1018 30.06 847 25.01 -19.2 -2.5 73 -22.9 -9.2
00:15 1018 30.06 847 25.01 -19.1 -2.5 72 -23 -9.4
00:20 1018 30.06 847 25.01 -19.3 -2.7 73 -23 -9.4
00:25 1018 30.06 847 25.01 -19.2 -2.6 72 -23.1 -9.6
00:30 1017 30.03 846 24.98 -19.2 -2.5 72 -23 -9.4
00:35 1017 30.03 846 24.98 -19.1 -2.4 73 -22.9 -9.2
00:40 1017 30.03 846 24.98 -19.1 -2.4 73 -22.9 -9.1
00:45 1017 30.03 846 24.98 -19.2 -2.5 73 -22.8 -9.1
00:50 1017 30.03 846 24.98 -19.2 -2.5 72 -23.1 -9.6
00:55 1017 30.03 846 24.98 -19.2 -2.5 73 -22.9 -9.1
01:00 1017 30.03 846 24.98 -19.1 -2.4 73 -22.9 -9.1
01:05 1016 30 846 24.98 -19.1 -2.3 74 -22.6 -8.8
01:10 1017 30.03 846 24.98 -19 -2.1 74 -22.5 -8.5
01:15 1017 30.03 846 24.98 -18.8 -1.9 73 -22.5 -8.5
01:20 1016 30 846 24.98 -18.6 -1.4 74 -22.1 -7.9
01:25 1017 30.03 846 24.98 -18.3 -0.9 73 -22 -7.5
01:30 1017 30.03 846 24.98 -18.1 -0.6 74 -21.7 -7.1
01:35 1017 30.03 846 24.98 -18 -0.4 72 -21.9 -7.4
01:40 1017 30.03 847 25.01 -18 -0.4 73 -21.8 -7.2
01:45 1018 30.06 847 25.01 -18 -0.4 73 -21.7 -7.1
01:50 1017 30.03 846 24.98 -18 -0.3 75 -21.3 -6.4
01:55 1017 30.03 846 24.98 -17.8 -0 74 -21.4 -6.5
02:00 1017 30.03 846 24.98 -18.2 -0.7 71 -22.2 -8
02:05 1017 30.03 846 24.98 -18.6 -1.4 71 -22.5 -8.6
02:10 1017 30.03 846 24.98 -18.6 -1.5 72 -22.5 -8.6
02:15 1016 30 846 24.98 -18.6 -1.4 71 -22.7 -8.8
02:20 1016 30 845 24.95 -18.8 -1.8 70 -22.9 -9.3
02:25 1016 30 845 24.95 -18.9 -2 71 -23 -9.4
02:30 1016 30 845 24.95 -19 -2.2 70 -23.1 -9.6
02:35 1016 30 845 24.95 -19.1 -2.3 71 -23 -9.4
02:40 1016 30 845 24.95 -19 -2.2 72 -22.9 -9.3
02:45 1016 30 845 24.95 -19 -2.1 72 -22.9 -9.1
02:50 1015 29.97 844 24.92 -18.8 -1.9 73 -22.5 -8.5
02:55 1015 29.97 844 24.92 -18.7 -1.7 72 -22.6 -8.6
03:00 1015 29.97 845 24.95 -18.6 -1.5 72 -22.4 -8.4
03:05 1015 29.97 845 24.95 -18.4 -1.2 71 -22.4 -8.3
03:10 1015 29.97 844 24.92 -18.4 -1.1 73 -22.2 -7.9
03:15 1015 29.97 844 24.92 -18.3 -0.9 73 -22 -7.6
03:20 1015 29.97 844 24.92 -18.3 -0.9 73 -21.9 -7.5
03:25 1015 29.97 844 24.92 -18.2 -0.7 73 -21.9 -7.4
03:30 1015 29.97 844 24.92 -18.2 -0.7 74 -21.8 -7.2
03:35 1015 29.97 844 24.92 -18.2 -0.7 74 -21.7 -7
03:40 1015 29.97 844 24.92 -18.1 -0.6 75 -21.6 -6.8
03:45 1015 29.97 844 24.92 -18.1 -0.5 75 -21.5 -6.8
03:50 1014 29.94 844 24.92 -18.1 -0.6 74 -21.7 -7
03:55 1014 29.94 844 24.92 -18.2 -0.8 74 -21.8 -7.3
04:00 1014 29.94 843 24.89 -18.2 -0.8 73 -21.9 -7.4
04:05 1014 29.94 843 24.89 -18.2 -0.8 73 -21.9 -7.5
04:10 1014 29.94 843 24.89 -18.2 -0.8 73 -21.9 -7.5
04:15 1014 29.94 843 24.89 -18.2 -0.7 73 -21.9 -7.5
04:20 1013 29.91 843 24.89 -18.1 -0.6 73 -21.8 -7.3
04:25 1013 29.91 842 24.86 -18.2 -0.7 73 -22 -7.6
04:30 1013 29.91 842 24.86 -18.4 -1 74 -21.9 -7.4
04:35 1013 29.91 842 24.86 -18.4 -1.1 76 -21.6 -6.9
04:40 1013 29.91 842 24.86 -18.5 -1.3 75 -21.9 -7.3
04:45 1013 29.91 842 24.86 -18.5 -1.3 75 -21.9 -7.5
04:50 1013 29.91 842 24.86 -18.5 -1.4 76 -21.8 -7.2
04:55 1012 29.88 842 24.86 -18.6 -1.4 77 -21.7 -7.1
05:00 1012 29.88 841 24.83 -18.7 -1.6 78 -21.6 -6.8
05:05 1012 29.88 841 24.83 -18.8 -1.8 79 -21.6 -6.9
05:10 1012 29.88 841 24.83 -18.8 -1.9 80 -21.4 -6.6
05:15 1012 29.88 841 24.83 -18.6 -1.4 79 -21.3 -6.4
05:20 1012 29.88 841 24.83 -18.6 -1.5 79 -21.4 -6.5
05:25 1012 29.88 841 24.83 -18.8 -1.9 79 -21.6 -6.8
05:30 1012 29.88 841 24.83 -19 -2.2 81 -21.6 -6.8
05:35 1012 29.88 841 24.83 -18.9 -2 81 -21.5 -6.6
05:40 1012 29.88 841 24.83 -18.7 -1.6 80 -21.3 -6.3
05:45 1012 29.88 841 24.83 -18.5 -1.3 80 -21.2 -6.2
05:50 1012 29.88 841 24.83 -18.6 -1.5 80 -21.3 -6.3
05:55 1012 29.88 841 24.83 -18.7 -1.6 80 -21.3 -6.3
06:00 1012 29.88 841 24.83 -18.6 -1.5 80 -21.2 -6.2
06:05 1012 29.88 841 24.83 -18.6 -1.5 80 -21.2 -6.2
06:10 1012 29.88 841 24.83 -18.5 -1.4 80 -21.2 -6.1
06:15 1012 29.88 841 24.83 -18.6 -1.4 80 -21.2 -6.1
06:20 1012 29.88 841 24.83 -18.7 -1.7 80 -21.3 -6.3
06:25 1012 29.88 841 24.83 -18.8 -1.8 81 -21.3 -6.3
06:30 1012 29.88 841 24.83 -18.8 -1.8 82 -21.2 -6.2
06:35 1012 29.88 841 24.83 -18.7 -1.7 81 -21.2 -6.1
06:40 1013 29.91 842 24.86 -18.5 -1.2 81 -21 -5.8
06:45 1013 29.91 842 24.86 -18.4 -1.1 80 -21 -5.8
06:50 1014 29.94 843 24.89 -18.6 -1.4 81 -21.1 -6
06:55 1014 29.94 843 24.89 -18.7 -1.7 80 -21.3 -6.3
07:00 1014 29.94 843 24.89 -19 -2.1 80 -21.6 -6.9
07:05 1015 29.97 844 24.92 -19.2 -2.5 81 -21.7 -7.1
07:10 1015 29.97 844 24.92 -19.2 -2.5 80 -21.8 -7.2
07:15 1015 29.97 844 24.92 -19.1 -2.4 81 -21.7 -7
07:20 1015 29.97 844 24.92 -19.2 -2.5 81 -21.7 -7.1
07:25 1014 29.94 843 24.89 -19.3 -2.8 81 -21.8 -7.2
07:30 1015 29.97 844 24.92 -19.2 -2.5 81 -21.7 -7.1
07:35 1015 29.97 844 24.92 -19.3 -2.7 81 -21.8 -7.2
07:40 1015 29.97 844 24.92 -19.2 -2.6 80 -21.9 -7.4
07:45 1015 29.97 844 24.92 -19.2 -2.6 80 -21.8 -7.2
07:50 1015 29.97 844 24.92 -19.1 -2.4 80 -21.7 -7.1
07:55 1015 29.97 844 24.92 -19.1 -2.4 80 -21.7 -7.1
08:00 1015 29.97 844 24.92 -19 -2.2 81 -21.6 -6.8
08:05 1015 29.97 844 24.92 -18.9 -2 80 -21.5 -6.7
08:10 1014 29.94 844 24.92 -18.9 -2.1 80 -21.5 -6.8
08:15 1015 29.97 844 24.92 -18.9 -1.9 80 -21.5 -6.7
08:20 1014 29.94 844 24.92 -18.8 -1.8 80 -21.4 -6.5
08:25 1014 29.94 843 24.89 -18.7 -1.6 80 -21.3 -6.3
08:30 1014 29.94 843 24.89 -18.4 -1.2 80 -21 -5.9
08:35 1014 29.94 843 24.89 -18.2 -0.7 80 -20.9 -5.6
08:40 1014 29.94 843 24.89 -18 -0.5 79 -20.9 -5.6
08:45 1014 29.94 843 24.89 -17.9 -0.2 79 -20.7 -5.2
08:50 1014 29.94 843 24.89 -17.7 0.2 79 -20.5 -5
08:55 1014 29.94 844 24.92 -17.4 0.7 79 -20.2 -4.4
09:00 1015 29.97 844 24.92 -17.1 1.2 78 -20 -4.1
09:05 1015 29.97 844 24.92 -16.7 1.9 79 -19.6 -3.3
09:10 1015 29.97 844 24.92 -16.4 2.6 79 -19.2 -2.5
09:15 1015 29.97 844 24.92 -15.9 3.4 79 -18.7 -1.6
09:20 1015 29.97 844 24.92 -15.4 4.4 79 -18.2 -0.8
09:25 1015 29.97 844 24.92 -15 5 77 -18.2 -0.7
09:30 1015 29.97 844 24.92 -15 5 78 -18.1 -0.5
09:35 1015 29.97 844 24.92 -15 4.9 78 -18.1 -0.5
09:40 1015 29.97 844 24.92 -15.1 4.9 76 -18.3 -1
09:45 1016 30 845 24.95 -15.1 4.9 79 -18 -0.4
09:50 1015 29.97 845 24.95 -14.6 5.8 76 -17.8 -0.1
09:55 1015 29.97 845 24.95 -14.5 5.9 77 -17.6 0.3
10:00 1016 30 845 24.95 -14.5 5.9 77 -17.7 0.1
10:05 1016 30 845 24.95 -14.6 5.6 77 -17.9 -0.1
10:10 1016 30 845 24.95 -14.6 5.7 79 -17.5 0.5
10:15 1016 30 845 24.95 -14.1 6.6 76 -17.5 0.5
10:20 1016 30 845 24.95 -13.9 7 77 -17.1 1.1
10:25 1016 30 845 24.95 -13.5 7.8 77 -16.7 1.9
10:30 1016 30 845 24.95 -12.9 8.8 75 -16.4 2.6
10:35 1016 30 845 24.95 -12.6 9.3 72 -16.6 2
10:40 1016 30 845 24.95 -12.9 8.7 72 -16.9 1.5
10:45 1016 30 845 24.95 -13.1 8.4 70 -17.5 0.5
10:50 1016 30 845 24.95 -13.4 7.9 72 -17.4 0.8
10:55 1016 30 845 24.95 -13.2 8.3 69 -17.8 -0
11:00 1016 30 845 24.95 -12.8 9 67 -17.7 0.1
11:05 1016 30 845 24.95 -13.3 8.1 69 -17.8 -0.1
11:10 1016 30 845 24.95 -13.3 8.1 67 -18.2 -0.8
11:15 1016 30 845 24.95 -13.4 7.8 69 -17.9 -0.2
11:20 1016 30 845 24.95 -12.7 9.2 66 -17.8 0
11:25 1016 30 845 24.95 -12.6 9.3 69 -17.3 0.9
11:30 1016 30 845 24.95 -12.6 9.2 68 -17.3 0.8
11:35 1016 30 845 24.95 -12 10.4 68 -16.8 1.8
11:40 1016 30 845 24.95 -11.6 11.2 66 -16.7 2
11:45 1016 30 845 24.95 -11.1 12 67 -16.1 2.9
11:50 1016 30 845 24.95 -11.5 11.3 70 -16 3.3
11:55 1016 30 845 24.95 -10.9 12.3 69 -15.6 4
12:00 1016 30 845 24.95 -9.9 14.1 70 -14.3 6.2
12:05 1016 30 845 24.95 -8.4 16.9 66 -13.7 7.4
12:10 1016 30 845 24.95 -7.4 18.8 63 -13.2 8.2
12:15 1016 30 845 24.95 -6.9 19.6 62 -13 8.6
12:20 1016 30 845 24.95 -6.5 20.3 62 -12.7 9.2
12:25 1016 30 845 24.95 -6.8 19.7 65 -12.4 9.8
12:30 1016 30 845 24.95 -6.1 21.1 62 -12.2 10.1
12:35 1016 30 845 24.95 -6 21.3 63 -11.8 10.7
12:40 1016 30 845 24.95 -5.7 21.8 64 -11.5 11.3
12:45 1016 30 845 24.95 -5.2 22.6 62 -11.4 11.4
12:50 1016 30 845 24.95 -4.7 23.6 63 -10.7 12.7
12:55 1016 30 845 24.95 -4.7 23.6 62 -10.9 12.4
13:00 1016 30 845 24.95 -4.3 24.3 61 -10.6 12.9
13:05 1016 30 845 24.95 -3.9 24.9 60 -10.7 12.8
13:10 1016 30 845 24.95 -3.5 25.7 59 -10.5 13.1
13:15 1016 30 845 24.95 -2.6 27.4 54 -10.6 13
13:20 1016 30 845 24.95 -1.8 28.8 53 -10.2 13.6
13:25 1016 30 845 24.95 -1.3 29.6 52 -10.1 13.9
13:30 1016 30 845 24.95 -0.3 31.4 48 -10.1 13.9
13:35 1016 30 845 24.95 -0.5 31.1 49 -9.9 14.1
13:40 1016 30 846 24.98 -0.6 30.9 49 -10 14
13:45 1016 30 846 24.98 -1 30.3 52 -9.6 14.7
13:50 1016 30 846 24.98 -1.1 30 51 -9.9 14.1
13:55 1017 30.03 846 24.98 -2.3 27.8 57 -9.7 14.6
14:00 1017 30.03 846 24.98 -3.2 26.3 59 -10.2 13.7
14:05 1017 30.03 846 24.98 -3 26.7 58 -10.1 13.9
14:10 1017 30.03 846 24.98 -2.8 27 58 -10 13.9
14:15 1017 30.03 846 24.98 -3.2 26.3 62 -9.5 14.9
14:20 1017 30.03 846 24.98 -3.3 26 63 -9.4 15
14:25 1017 30.03 846 24.98 -3.1 26.4 62 -9.4 15.1
14:30 1017 30.03 846 24.98 -2.8 26.9 60 -9.5 15
14:35 1017 30.03 846 24.98 -2.6 27.3 59 -9.5 15
14:40 1017 30.03 846 24.98 -2.6 27.3 60 -9.4 15.1
14:45 1017 30.03 846 24.98 -2.2 28.1 58 -9.4 15.1
14:50 1017 30.03 846 24.98 -2.1 28.2 59 -9.1 15.6
14:55 1017 30.03 846 24.98 -1.9 28.6 58 -9.1 15.5
15:00 1017 30.03 846 24.98 -2 28.4 60 -8.8 16.2
15:05 1017 30.03 846 24.98 -2.3 27.9 62 -8.5 16.6
15:10 1017 30.03 846 24.98 -2.5 27.4 62 -8.9 15.9
15:15 1017 30.03 846 24.98 -2.7 27.1 64 -8.7 16.4
15:20 1017 30.03 846 24.98 -3 26.5 64 -9 15.9
15:25 1017 30.03 846 24.98 -3 26.6 65 -8.8 16.2
15:30 1017 30.03 846 24.98 -3.1 26.4 63 -9.2 15.5
15:35 1017 30.03 846 24.98 -3 26.5 62 -9.4 15.2
15:40 1017 30.03 847 25.01 -2.8 26.9 61 -9.4 15
15:45 1017 30.03 847 25.01 -2.8 27 60 -9.5 14.9
15:50 1017 30.03 847 25.01 -2.8 26.9 61 -9.3 15.2
15:55 1018 30.06 847 25.01 -3.2 26.3 62 -9.4 15
16:00 1018 30.06 847 25.01 -3.4 25.8 62 -9.7 14.5
16:05 1018 30.06 847 25.01 -3.5 25.7 66 -8.9 15.9
16:10 1018 30.06 847 25.01 -4.4 24.1 67 -9.6 14.8
16:15 1018 30.06 847 25.01 -5.6 22 65 -11.1 12
16:20 1018 30.06 847 25.01 -7.1 19.2 62 -13.2 8.2
16:25 1018 30.06 847 25.01 -9.1 15.6 60 -15.5 4.1
16:30 1018 30.06 848 25.04 -11.1 12 64 -16.6 2.1
16:35 1019 30.09 848 25.04 -12.5 9.5 66 -17.6 0.3
16:40 1019 30.09 848 25.04 -12.9 8.8 66 -18 -0.3
16:45 1019 30.09 848 25.04 -13.2 8.3 65 -18.5 -1.2
16:50 1019 30.09 848 25.04 -13.5 7.8 67 -18.4 -1.1
16:55 1019 30.09 848 25.04 -13.5 7.7 67 -18.3 -1
17:00 1019 30.09 848 25.04 -13.7 7.3 68 -18.5 -1.3
17:05 1019 30.09 848 25.04 -14.1 6.6 68 -18.7 -1.7
17:10 1019 30.09 848 25.04 -14.1 6.6 68 -18.8 -1.9
17:15 1019 30.09 849 25.07 -14.3 6.2 70 -18.7 -1.7
17:20 1019 30.09 849 25.07 -14.1 6.7 69 -18.6 -1.6
17:25 1019 30.09 849 25.07 -14 6.7 69 -18.6 -1.5
17:30 1019 30.09 848 25.04 -14.1 6.6 69 -18.6 -1.5
17:35 1019 30.09 849 25.07 -14.2 6.5 70 -18.6 -1.4
17:40 1019 30.09 849 25.07 -14.3 6.2 72 -18.3 -1
17:45 1019 30.09 849 25.07 -14.2 6.4 72 -18.3 -0.9
17:50 1019 30.09 849 25.07 -14.2 6.4 72 -18.3 -0.9
17:55 1019 30.09 849 25.07 -14.2 6.5 71 -18.4 -1.1
18:00 1019 30.09 849 25.07 -14.3 6.3 72 -18.3 -0.9
18:05 1019 30.09 849 25.07 -14.3 6.3 72 -18.3 -1
18:10 1019 30.09 849 25.07 -14.2 6.5 72 -18.1 -0.6
18:15 1019 30.09 849 25.07 -13.9 6.9 71 -18.1 -0.6
18:20 1020 30.12 849 25.07 -13.9 7 72 -17.9 -0.2
18:25 1020 30.12 849 25.07 -13.5 7.8 71 -17.7 0.1
18:30 1020 30.12 849 25.07 -13.6 7.6 71 -17.8 0
18:35 1020 30.12 849 25.07 -14.1 6.6 72 -18.1 -0.5
18:40 1020 30.12 849 25.07 -14.6 5.7 73 -18.4 -1.1
18:45 1020 30.12 849 25.07 -14.6 5.7 74 -18.3 -0.9
18:50 1020 30.12 849 25.07 -14.3 6.3 71 -18.4 -1.1
18:55 1020 30.12 850 25.1 -14.5 6 73 -18.2 -0.8
19:00 1020 30.12 850 25.1 -14.3 6.4 73 -18.2 -0.7
19:05 1020 30.12 850 25.1 -14.3 6.3 72 -18.3 -0.9
19:10 1021 30.15 850 25.1 -14.3 6.3 73 -18.1 -0.6
19:15 1021 30.15 850 25.1 -14.4 6 75 -18 -0.4
19:20 1021 30.15 850 25.1 -14.5 5.9 75 -18.1 -0.5
19:25 1021 30.15 850 25.1 -14.4 6.1 74 -18 -0.4
19:30 1021 30.15 850 25.1 -14.3 6.2 74 -18 -0.4
19:35 1021 30.15 850 25.1 -14.5 6 74 -18.1 -0.6
19:40 1021 30.15 850 25.1 -14.7 5.5 76 -18.1 -0.6
19:45 1021 30.15 850 25.1 -14.6 5.6 75 -18.1 -0.6
19:50 1021 30.15 850 25.1 -14.6 5.7 74 -18.2 -0.8
19:55 1021 30.15 850 25.1 -14.8 5.4 73 -18.6 -1.4
20:00 1021 30.15 850 25.1 -15.1 4.8 73 -18.8 -1.9
20:05 1021 30.15 850 25.1 -15.3 4.5 74 -18.9 -2.1
20:10 1021 30.15 850 25.1 -15.6 4 76 -18.9 -2
20:15 1021 30.15 850 25.1 -15.8 3.6 75 -19.3 -2.7
20:20 1021 30.15 850 25.1 -16.2 2.9 77 -19.3 -2.8
20:25 1021 30.15 850 25.1 -16.3 2.7 79 -19.1 -2.4
20:30 1021 30.15 850 25.1 -16.1 3 78 -19.2 -2.5
20:35 1021 30.15 850 25.1 -16.3 2.7 78 -19.2 -2.6
20:40 1021 30.15 850 25.1 -16.3 2.6 77 -19.5 -3
20:45 1021 30.15 850 25.1 -16.5 2.2 80 -19.3 -2.7
20:50 1021 30.15 851 25.13 -16.4 2.5 79 -19.2 -2.6
20:55 1022 30.18 851 25.13 -16.1 3.1 77 -19.2 -2.6
21:00 1022 30.18 851 25.13 -15.9 3.3 76 -19.2 -2.5
21:05 1022 30.18 851 25.13 -15.8 3.6 76 -19.1 -2.4
21:10 1022 30.18 851 25.13 -15.8 3.5 74 -19.4 -2.9
21:15 1022 30.18 851 25.13 -16 3.2 75 -19.5 -3.1
21:20 1022 30.18 851 25.13 -16.1 3 75 -19.6 -3.2
21:25 1022 30.18 851 25.13 -16.2 2.9 75 -19.7 -3.5
21:30 1022 30.18 851 25.13 -16.3 2.6 75 -19.8 -3.6
21:35 1022 30.18 851 25.13 -16.4 2.4 76 -19.7 -3.5
21:40 1022 30.18 851 25.13 -16.4 2.4 76 -19.7 -3.5
21:45 1022 30.18 851 25.13 -16.3 2.7 75 -19.7 -3.5
21:50 1022 30.18 852 25.16 -16.3 2.8 75 -19.7 -3.4
21:55 1022 30.18 852 25.16 -16.3 2.7 75 -19.7 -3.5
22:00 1022 30.18 852 25.16 -16.6 2.2 75 -19.9 -3.9
22:05 1022 30.18 852 25.16 -16.7 1.9 76 -20 -4
22:10 1023 30.21 852 25.16 -17 1.4 77 -20.2 -4.3
22:15 1023 30.21 852 25.16 -17.1 1.2 78 -20 -4
22:20 1023 30.21 852 25.16 -16.8 1.8 78 -19.8 -3.7
22:25 1022 30.18 852 25.16 -16.8 1.8 77 -19.9 -3.8
22:30 1022 30.18 852 25.16 -16.8 1.8 78 -19.8 -3.6
22:35 1023 30.21 852 25.16 -16.7 2 78 -19.7 -3.5
22:40 1023 30.21 852 25.16 -16.4 2.5 76 -19.6 -3.3
22:45 1023 30.21 852 25.16 -16.2 2.8 75 -19.6 -3.3
22:50 1023 30.21 852 25.16 -16.4 2.5 76 -19.7 -3.4
22:55 1023 30.21 852 25.16 -16.4 2.5 76 -19.8 -3.6
23:00 1023 30.21 852 25.16 -16.9 1.6 78 -19.9 -3.8
23:05 1023 30.21 852 25.16 -17 1.5 78 -20 -4
23:10 1023 30.21 852 25.16 -17.2 1.1 78 -20.1 -4.3
23:15 1023 30.21 852 25.16 -17.2 1.1 78 -20.1 -4.2
23:20 1023 30.21 852 25.16 -17.2 1.1 76 -20.5 -4.9
23:25 1023 30.21 852 25.16 -17.6 0.4 78 -20.5 -4.9
23:30 1023 30.21 852 25.16 -17.6 0.3 79 -20.4 -4.8
23:35 1023 30.21 852 25.16 -17.5 0.5 79 -20.4 -4.7
23:40 1023 30.21 852 25.16 -17.2 1 77 -20.3 -4.5
23:45 1023 30.21 852 25.16 -17.3 1 77 -20.4 -4.8
23:50 1023 30.21 852 25.16 -17.3 0.9 77 -20.5 -4.8
23:55 1023 30.21 852 25.16 -17.3 0.9 77 -20.5 -4.9
24:00 1023 30.21 852 25.16 -17.6 0.3 78 -20.5 -4.9